Provo, UT (84601)

7:24 PM MDT on April 24, 2015 (GMT -0600)
MesoWest | | Change Station
CLOSE
Current Station
Personal Weather Station
Location: Provo, UT
Elevation: 4500 ft
Nearby Weather Stations

Elev 4500 ft 40.20 °N, 111.66 °W | Updated 44 minutes ago

Overcast
Overcast
59 °F
Feels Like 59 °F
N
6
Wind Variable Wind from NNW
Gusts 8.0 mph

Today
High -- | Low -- °F
--% Chance of Precip.
Yesterday
High -- | Low -- °F
Precip. -- in
6:35 AM 8:14 PM
Waxing Crescent, 41% visible
Pressure 29.72 in
Visibility 10.0 miles
Clouds Scattered Clouds 4900 ft
Overcast 5500 ft
Dew Point 36 °F
Humidity 42%
Rainfall in
Snow Depth Not available.
UV 0 out of 12
Pollen 9.30 out of 12
Air Quality Not available.
Flu Activity Local Activity
METAR KPVU 250056Z 32011KT 10SM VCSH SCT049 OVC055 11/04 A2972

More Conditions Fewer Conditions

Pressure 29.72 in
Visibility 10.0 miles
Clouds Scattered Clouds 4900 ft
Overcast 5500 ft
Dew Point 36 °F
Humidity 42%
Rainfall in
Snow Depth Not available.
UV 0 out of 12
Pollen 9.30 out of 12
Air Quality Not available.
Flu Activity Local Activity
METAR KPVU 250056Z 32011KT 10SM VCSH SCT049 OVC055 11/04 A2972

More Conditions Fewer Conditions

Nowcast | as of 6:12 PM MDT on April 24, 2015

Scattered showers and isolated thunderstorms will continue over northern and central Utah and southwest Wyoming this evening. The strongest storms at 600 PM were located between Snowville and locomotive Springs...southwest of Dugway...and west of Plain City. Cloud to ground lightning...locally heavy rain...small hail...and strong gusty winds are possible with some of these storms.

×

10-Day Weather Forecast

Almanac

Astronomy

Apr. 24, 2015 Rise Set
Actual Time
Civil Twilight
Nautical Twilight
Astronomical Twilight
Moon
Length of Visible Light
Length of Day
Tomorrow will be .
, % of the Moon is Illuminated

Today's Extremes

State Highs State Lows

Community

WunderPhotos

Upload Photos

1,816,544 photos uploaded!

WunderBlogs® & News

Nearby

Air Quality

  Air Quality AQ Index Pollutant
Not available.

Snow Depth

Station Depth Elevation

Earthquake Activity

City Distance Mag. Time & Date
Minimum magnitude displayed is 2.5.

Coastal Water Temperatures

Place Temperature

Stations

Nearby Weather Stations

Station Location Temp. Windchill Dew Point Humidity Wind Precip. Elev Updated Type